createdAt,value
2019-06-25T00:08:10.851Z,9.87
2019-06-25T00:18:11.803Z,8.97
2019-06-25T00:28:12.769Z,9.53
2019-06-25T00:38:13.717Z,9.90
2019-06-25T00:48:14.655Z,9.50
2019-06-25T00:58:15.595Z,9.57
2019-06-25T01:08:16.535Z,9.40
2019-06-25T01:18:17.480Z,9.40
2019-06-25T01:28:18.543Z,9.30
2019-06-25T01:48:56.989Z,9.47
2019-06-25T02:09:38.515Z,10.23
2019-06-25T02:30:18.634Z,8.50
2019-06-25T02:40:19.822Z,8.73
2019-06-25T02:50:20.853Z,7.90
2019-06-25T03:00:21.916Z,8.23
2019-06-25T03:10:23.923Z,8.13
2019-06-25T03:20:25.386Z,7.80
2019-06-25T03:30:26.399Z,8.17
2019-06-25T03:40:27.386Z,8.33
2019-06-25T03:50:28.346Z,7.70
2019-06-25T04:00:29.255Z,7.17
2019-06-25T04:10:30.185Z,7.30
2019-06-25T04:20:31.142Z,7.23
2019-06-25T04:30:32.083Z,6.43
2019-06-25T04:40:33.014Z,6.87
2019-06-25T04:50:33.940Z,7.77
2019-06-25T05:00:34.980Z,6.87
2019-06-25T05:10:35.916Z,6.63
2019-06-25T05:20:36.967Z,6.80
2019-06-25T05:30:38.012Z,7.30
2019-06-25T05:40:41.257Z,6.80
2019-06-25T05:50:42.665Z,5.20
2019-06-25T06:00:43.647Z,5.75
2019-06-25T06:10:44.591Z,5.70
2019-06-25T06:20:45.543Z,11.25
2019-06-25T06:30:46.656Z,5.62
2019-06-25T06:40:48.010Z,5.53
2019-06-25T06:50:49.091Z,7.03
2019-06-25T07:00:50.152Z,6.20
2019-06-25T07:10:51.289Z,7.85
2019-06-25T07:20:52.439Z,6.00
2019-06-25T07:30:53.500Z,5.22
2019-06-25T07:40:54.545Z,5.65
2019-06-25T07:50:55.585Z,5.45
2019-06-25T08:00:56.649Z,6.00
2019-06-25T08:10:57.557Z,6.60
2019-06-25T08:20:58.490Z,6.12
2019-06-25T08:30:59.429Z,7.67
2019-06-25T08:41:00.641Z,7.53
2019-06-25T08:51:02.065Z,5.17
2019-06-25T09:01:03.007Z,6.40
2019-06-25T09:11:04.161Z,6.70
2019-06-25T09:21:05.246Z,6.72
2019-06-25T09:31:06.381Z,6.40
2019-06-25T09:41:07.240Z,5.83
2019-06-25T09:51:08.536Z,6.85
2019-06-25T10:01:22.477Z,6.58
2019-06-25T10:11:12.599Z,6.53
2019-06-25T10:21:13.633Z,6.42
2019-06-25T10:31:14.636Z,6.40
2019-06-25T10:41:15.566Z,6.75
2019-06-25T10:51:16.824Z,6.35
2019-06-25T11:01:17.825Z,7.17
2019-06-25T11:11:18.963Z,6.15
2019-06-25T11:21:19.960Z,8.45
2019-06-25T11:31:20.927Z,6.37
2019-06-25T11:41:21.889Z,6.37
2019-06-25T11:51:22.936Z,5.83
2019-06-25T12:01:23.889Z,6.23
2019-06-25T12:11:24.919Z,5.97
2019-06-25T12:21:25.885Z,5.97
2019-06-25T12:31:26.852Z,5.72
2019-06-25T12:41:27.913Z,5.57
2019-06-25T12:51:28.844Z,5.42
2019-06-25T13:01:40.825Z,5.12
2019-06-25T13:11:32.765Z,5.72
2019-06-25T13:21:33.675Z,5.40
2019-06-25T13:31:34.629Z,5.40
2019-06-25T13:41:35.582Z,4.72
2019-06-25T13:51:36.521Z,4.53
2019-06-25T14:01:37.466Z,4.62
2019-06-25T14:11:38.441Z,4.78
2019-06-25T14:21:39.366Z,4.33
2019-06-25T14:31:40.324Z,3.40
2019-06-25T14:41:41.260Z,3.40
2019-06-25T14:51:42.196Z,5.87
2019-06-25T15:01:43.146Z,3.95
2019-06-25T16:13:56.333Z,4.10
2019-06-25T16:34:32.516Z,5.50
2019-06-25T16:44:33.468Z,5.00
2019-06-25T16:54:34.457Z,4.47
2019-06-25T17:04:36.499Z,4.30
2019-06-25T17:14:37.504Z,4.83
2019-06-25T17:24:38.408Z,5.80
2019-06-25T17:34:39.365Z,4.50
2019-06-25T17:44:41.021Z,4.80
2019-06-25T17:54:43.133Z,4.77
2019-06-25T18:04:44.883Z,4.63
2019-06-25T18:14:45.841Z,4.67
2019-06-25T18:24:46.803Z,5.30
2019-06-25T18:34:48.101Z,4.63
2019-06-25T18:45:03.409Z,5.00
2019-06-25T18:54:52.764Z,4.93
2019-06-25T19:04:53.724Z,5.23
2019-06-25T19:14:54.667Z,5.17
2019-06-25T19:24:55.690Z,5.60
2019-06-25T19:34:56.783Z,5.47
2019-06-25T19:44:57.724Z,5.90
2019-06-25T19:54:58.691Z,5.13
2019-06-25T20:05:00.864Z,5.90
2019-06-25T20:15:04.781Z,6.93
2019-06-25T20:25:06.229Z,7.40
2019-06-25T20:35:07.520Z,7.00
2019-06-25T20:45:11.773Z,7.07
2019-06-25T20:55:14.148Z,7.27
2019-06-25T21:05:15.461Z,8.40
2019-06-25T21:15:16.812Z,7.47
2019-06-25T21:25:20.107Z,7.53
2019-06-25T21:35:21.552Z,8.83
2019-06-25T21:45:22.613Z,8.93
2019-06-25T21:55:23.817Z,9.97
2019-06-25T22:05:25.200Z,12.60
2019-06-25T22:15:28.426Z,13.03
2019-06-25T22:25:29.665Z,12.20
2019-06-25T22:35:32.063Z,11.63
2019-06-25T22:45:33.282Z,15.00
2019-06-25T22:55:34.487Z,16.67
2019-06-25T23:05:35.954Z,15.10
2019-06-25T23:15:37.174Z,18.00
2019-06-25T23:25:38.299Z,19.27
2019-06-25T23:35:39.600Z,19.13
2019-06-25T23:45:42.713Z,20.87
2019-06-25T23:55:43.974Z,22.90
